sensor_id;sensor_type;location;lat;lon;timestamp;temperature;humidity
20740;DHT22;10530;49.968;19.844;2022-10-16T00:00:45;12.70;99.90
20740;DHT22;10530;49.968;19.844;2022-10-16T00:05:47;12.80;99.90
20740;DHT22;10530;49.968;19.844;2022-10-16T00:10:50;12.80;99.90
20740;DHT22;10530;49.968;19.844;2022-10-16T00:15:56;12.90;99.90
20740;DHT22;10530;49.968;19.844;2022-10-16T00:21:08;12.90;99.90
20740;DHT22;10530;49.968;19.844;2022-10-16T00:26:31;12.90;99.90
20740;DHT22;10530;49.968;19.844;2022-10-16T00:31:34;12.90;99.90
20740;DHT22;10530;49.968;19.844;2022-10-16T00:36:37;12.80;99.90
20740;DHT22;10530;49.968;19.844;2022-10-16T00:41:39;12.90;99.90
20740;DHT22;10530;49.968;19.844;2022-10-16T00:46:42;12.80;99.90
20740;DHT22;10530;49.968;19.844;2022-10-16T00:51:50;12.80;99.90
20740;DHT22;10530;49.968;19.844;2022-10-16T00:56:55;12.80;99.90
20740;DHT22;10530;49.968;19.844;2022-10-16T01:02:00;12.70;99.90
20740;DHT22;10530;49.968;19.844;2022-10-16T01:12:33;12.60;99.90
20740;DHT22;10530;49.968;19.844;2022-10-16T01:17:50;12.70;99.90
20740;DHT22;10530;49.968;19.844;2022-10-16T01:34:06;12.50;99.90
20740;DHT22;10530;49.968;19.844;2022-10-16T01:39:13;12.50;99.90
20740;DHT22;10530;49.968;19.844;2022-10-16T01:44:21;12.50;99.90
20740;DHT22;10530;49.968;19.844;2022-10-16T01:49:27;12.60;99.90
20740;DHT22;10530;49.968;19.844;2022-10-16T01:54:34;12.50;99.90
20740;DHT22;10530;49.968;19.844;2022-10-16T01:59:45;12.50;99.90
20740;DHT22;10530;49.968;19.844;2022-10-16T02:04:53;12.50;99.90
20740;DHT22;10530;49.968;19.844;2022-10-16T02:09:57;12.50;99.90
20740;DHT22;10530;49.968;19.844;2022-10-16T02:15:00;12.40;99.90
20740;DHT22;10530;49.968;19.844;2022-10-16T02:20:04;12.30;99.90
20740;DHT22;10530;49.968;19.844;2022-10-16T02:25:35;12.30;99.90
20740;DHT22;10530;49.968;19.844;2022-10-16T02:30:42;12.20;99.90
20740;DHT22;10530;49.968;19.844;2022-10-16T02:35:47;12.30;99.90
20740;DHT22;10530;49.968;19.844;2022-10-16T02:40:50;12.20;99.90
20740;DHT22;10530;49.968;19.844;2022-10-16T02:45:53;12.20;99.90
20740;DHT22;10530;49.968;19.844;2022-10-16T02:50:56;12.10;99.90
20740;DHT22;10530;49.968;19.844;2022-10-16T02:55:59;12.20;99.90
20740;DHT22;10530;49.968;19.844;2022-10-16T03:01:02;12.20;99.90
20740;DHT22;10530;49.968;19.844;2022-10-16T03:06:05;12.20;99.90
20740;DHT22;10530;49.968;19.844;2022-10-16T03:11:08;12.20;99.90
20740;DHT22;10530;49.968;19.844;2022-10-16T03:16:11;12.20;99.90
20740;DHT22;10530;49.968;19.844;2022-10-16T03:21:14;12.20;99.90
20740;DHT22;10530;49.968;19.844;2022-10-16T03:26:17;12.10;99.90
20740;DHT22;10530;49.968;19.844;2022-10-16T03:31:19;12.00;99.90
20740;DHT22;10530;49.968;19.844;2022-10-16T03:36:22;11.80;99.90
20740;DHT22;10530;49.968;19.844;2022-10-16T03:41:25;11.60;99.90
20740;DHT22;10530;49.968;19.844;2022-10-16T03:46:28;11.40;99.90
20740;DHT22;10530;49.968;19.844;2022-10-16T03:51:31;11.10;99.90
20740;DHT22;10530;49.968;19.844;2022-10-16T03:56:34;11.00;99.90
20740;DHT22;10530;49.968;19.844;2022-10-16T04:01:37;10.90;99.90
20740;DHT22;10530;49.968;19.844;2022-10-16T04:06:40;10.90;99.90
20740;DHT22;10530;49.968;19.844;2022-10-16T04:11:42;10.90;99.90
20740;DHT22;10530;49.968;19.844;2022-10-16T04:16:45;10.90;99.90
20740;DHT22;10530;49.968;19.844;2022-10-16T04:21:48;11.00;99.90
20740;DHT22;10530;49.968;19.844;2022-10-16T04:26:51;11.00;99.90
20740;DHT22;10530;49.968;19.844;2022-10-16T04:31:53;10.90;99.90
20740;DHT22;10530;49.968;19.844;2022-10-16T04:36:56;10.80;99.90
20740;DHT22;10530;49.968;19.844;2022-10-16T04:41:59;10.70;99.90
20740;DHT22;10530;49.968;19.844;2022-10-16T04:47:02;10.60;99.90
20740;DHT22;10530;49.968;19.844;2022-10-16T04:52:05;10.40;99.90
20740;DHT22;10530;49.968;19.844;2022-10-16T04:57:07;10.40;99.90
20740;DHT22;10530;49.968;19.844;2022-10-16T05:02:10;10.40;99.90
20740;DHT22;10530;49.968;19.844;2022-10-16T05:07:13;10.40;99.90
20740;DHT22;10530;49.968;19.844;2022-10-16T05:12:16;10.40;99.90
20740;DHT22;10530;49.968;19.844;2022-10-16T05:17:19;10.30;99.90
20740;DHT22;10530;49.968;19.844;2022-10-16T05:22:21;10.40;99.90
20740;DHT22;10530;49.968;19.844;2022-10-16T05:27:24;10.50;99.90
20740;DHT22;10530;49.968;19.844;2022-10-16T05:32:27;10.40;99.90
20740;DHT22;10530;49.968;19.844;2022-10-16T05:37:30;10.50;99.90
20740;DHT22;10530;49.968;19.844;2022-10-16T05:42:33;10.60;99.90
20740;DHT22;10530;49.968;19.844;2022-10-16T05:47:36;10.70;99.90
20740;DHT22;10530;49.968;19.844;2022-10-16T05:52:39;10.80;99.90
20740;DHT22;10530;49.968;19.844;2022-10-16T05:57:42;11.00;99.90
20740;DHT22;10530;49.968;19.844;2022-10-16T06:02:45;11.10;99.90
20740;DHT22;10530;49.968;19.844;2022-10-16T06:07:48;11.20;99.90
20740;DHT22;10530;49.968;19.844;2022-10-16T06:12:51;11.20;99.90
20740;DHT22;10530;49.968;19.844;2022-10-16T06:17:54;11.40;99.90
20740;DHT22;10530;49.968;19.844;2022-10-16T06:22:57;11.60;99.90
20740;DHT22;10530;49.968;19.844;2022-10-16T06:27:59;11.80;99.90
20740;DHT22;10530;49.968;19.844;2022-10-16T06:33:02;11.90;99.90
20740;DHT22;10530;49.968;19.844;2022-10-16T06:38:05;12.10;99.90
20740;DHT22;10530;49.968;19.844;2022-10-16T06:43:08;12.40;99.90
20740;DHT22;10530;49.968;19.844;2022-10-16T06:48:10;12.60;99.90
20740;DHT22;10530;49.968;19.844;2022-10-16T06:53:13;12.90;99.90
20740;DHT22;10530;49.968;19.844;2022-10-16T06:58:16;13.00;99.90
20740;DHT22;10530;49.968;19.844;2022-10-16T07:03:18;13.20;99.90
20740;DHT22;10530;49.968;19.844;2022-10-16T07:08:22;13.40;99.90
20740;DHT22;10530;49.968;19.844;2022-10-16T07:13:24;13.60;99.90
20740;DHT22;10530;49.968;19.844;2022-10-16T07:18:28;13.90;99.90
20740;DHT22;10530;49.968;19.844;2022-10-16T07:23:32;13.90;99.90
20740;DHT22;10530;49.968;19.844;2022-10-16T07:28:36;14.10;99.90
20740;DHT22;10530;49.968;19.844;2022-10-16T07:33:40;14.40;99.90
20740;DHT22;10530;49.968;19.844;2022-10-16T07:38:46;14.70;99.90
20740;DHT22;10530;49.968;19.844;2022-10-16T07:43:50;14.90;99.90
20740;DHT22;10530;49.968;19.844;2022-10-16T07:48:54;15.20;99.90
20740;DHT22;10530;49.968;19.844;2022-10-16T07:53:57;15.40;99.90
20740;DHT22;10530;49.968;19.844;2022-10-16T07:58:59;15.20;99.90
20740;DHT22;10530;49.968;19.844;2022-10-16T08:04:02;15.40;99.90
20740;DHT22;10530;49.968;19.844;2022-10-16T08:09:10;15.80;99.90
20740;DHT22;10530;49.968;19.844;2022-10-16T08:14:13;16.80;99.90
20740;DHT22;10530;49.968;19.844;2022-10-16T08:19:16;17.20;99.90
20740;DHT22;10530;49.968;19.844;2022-10-16T08:24:19;17.30;99.90
20740;DHT22;10530;49.968;19.844;2022-10-16T08:29:21;17.50;99.90
20740;DHT22;10530;49.968;19.844;2022-10-16T08:34:24;17.80;99.90
20740;DHT22;10530;49.968;19.844;2022-10-16T08:39:28;19.00;99.90
20740;DHT22;10530;49.968;19.844;2022-10-16T08:44:46;20.40;99.90
20740;DHT22;10530;49.968;19.844;2022-10-16T08:49:59;25.50;99.90
20740;DHT22;10530;49.968;19.844;2022-10-16T08:55:04;27.10;88.40
20740;DHT22;10530;49.968;19.844;2022-10-16T09:00:13;24.50;92.10
20740;DHT22;10530;49.968;19.844;2022-10-16T09:11:23;26.50;83.20
20740;DHT22;10530;49.968;19.844;2022-10-16T09:16:28;24.20;92.70
20740;DHT22;10530;49.968;19.844;2022-10-16T09:21:36;22.40;99.90
20740;DHT22;10530;49.968;19.844;2022-10-16T09:26:39;21.80;99.90
20740;DHT22;10530;49.968;19.844;2022-10-16T09:31:42;22.00;99.90
20740;DHT22;10530;49.968;19.844;2022-10-16T09:36:46;21.90;99.90
20740;DHT22;10530;49.968;19.844;2022-10-16T09:41:49;22.30;99.90
20740;DHT22;10530;49.968;19.844;2022-10-16T09:47:23;25.10;99.90
20740;DHT22;10530;49.968;19.844;2022-10-16T09:52:26;25.40;97.00
20740;DHT22;10530;49.968;19.844;2022-10-16T09:57:29;29.20;86.60
20740;DHT22;10530;49.968;19.844;2022-10-16T10:02:36;26.20;77.20
20740;DHT22;10530;49.968;19.844;2022-10-16T10:07:43;24.40;93.00
20740;DHT22;10530;49.968;19.844;2022-10-16T10:12:48;24.80;92.10
20740;DHT22;10530;49.968;19.844;2022-10-16T10:17:55;25.80;79.50
20740;DHT22;10530;49.968;19.844;2022-10-16T10:22:58;24.90;83.70
20740;DHT22;10530;49.968;19.844;2022-10-16T10:33:28;25.60;82.60
20740;DHT22;10530;49.968;19.844;2022-10-16T10:44:07;27.40;61.80
20740;DHT22;10530;49.968;19.844;2022-10-16T10:49:28;27.30;57.50
20740;DHT22;10530;49.968;19.844;2022-10-16T10:54:49;25.60;56.50
20740;DHT22;10530;49.968;19.844;2022-10-16T11:11:02;23.30;71.10
20740;DHT22;10530;49.968;19.844;2022-10-16T11:21:36;22.80;76.20
20740;DHT22;10530;49.968;19.844;2022-10-16T11:26:43;22.60;84.80
20740;DHT22;10530;49.968;19.844;2022-10-16T11:32:05;22.30;84.30
20740;DHT22;10530;49.968;19.844;2022-10-16T11:37:17;22.40;82.00
20740;DHT22;10530;49.968;19.844;2022-10-16T11:42:27;22.40;90.00
20740;DHT22;10530;49.968;19.844;2022-10-16T11:53:35;22.00;90.50
20740;DHT22;10530;49.968;19.844;2022-10-16T11:58:55;21.70;90.50
20740;DHT22;10530;49.968;19.844;2022-10-16T12:04:14;21.70;93.20
20740;DHT22;10530;49.968;19.844;2022-10-16T12:09:30;21.50;97.30
20740;DHT22;10530;49.968;19.844;2022-10-16T12:14:36;21.40;99.90
20740;DHT22;10530;49.968;19.844;2022-10-16T12:25:39;21.20;99.90
20740;DHT22;10530;49.968;19.844;2022-10-16T12:31:04;21.10;99.90
20740;DHT22;10530;49.968;19.844;2022-10-16T12:36:25;21.40;99.90
20740;DHT22;10530;49.968;19.844;2022-10-16T12:41:31;21.60;99.90
20740;DHT22;10530;49.968;19.844;2022-10-16T12:46:38;21.50;99.90
20740;DHT22;10530;49.968;19.844;2022-10-16T12:51:42;21.50;99.90
20740;DHT22;10530;49.968;19.844;2022-10-16T13:02:05;21.10;99.90
20740;DHT22;10530;49.968;19.844;2022-10-16T13:07:28;21.00;99.90
20740;DHT22;10530;49.968;19.844;2022-10-16T13:13:00;21.10;99.90
20740;DHT22;10530;49.968;19.844;2022-10-16T13:29:14;20.60;99.90
20740;DHT22;10530;49.968;19.844;2022-10-16T13:34:21;20.50;99.90
20740;DHT22;10530;49.968;19.844;2022-10-16T13:39:29;20.40;99.90
20740;DHT22;10530;49.968;19.844;2022-10-16T13:44:40;20.50;99.90
20740;DHT22;10530;49.968;19.844;2022-10-16T13:49:45;20.60;99.90
20740;DHT22;10530;49.968;19.844;2022-10-16T13:54:48;20.50;99.90
20740;DHT22;10530;49.968;19.844;2022-10-16T13:59:51;20.30;99.90
20740;DHT22;10530;49.968;19.844;2022-10-16T14:04:54;20.10;99.90
20740;DHT22;10530;49.968;19.844;2022-10-16T14:10:05;19.90;99.90
20740;DHT22;10530;49.968;19.844;2022-10-16T14:15:17;19.70;99.90
20740;DHT22;10530;49.968;19.844;2022-10-16T14:20:28;19.50;99.90
20740;DHT22;10530;49.968;19.844;2022-10-16T14:25:32;19.40;99.90
20740;DHT22;10530;49.968;19.844;2022-10-16T14:30:36;19.30;99.90
20740;DHT22;10530;49.968;19.844;2022-10-16T14:35:40;19.30;99.90
20740;DHT22;10530;49.968;19.844;2022-10-16T14:40:47;19.40;99.90
20740;DHT22;10530;49.968;19.844;2022-10-16T14:45:55;19.40;99.90
20740;DHT22;10530;49.968;19.844;2022-10-16T14:50:59;20.20;99.90
20740;DHT22;10530;49.968;19.844;2022-10-16T14:56:14;20.10;99.90
20740;DHT22;10530;49.968;19.844;2022-10-16T15:01:19;19.90;99.90
20740;DHT22;10530;49.968;19.844;2022-10-16T15:06:22;19.50;99.90
20740;DHT22;10530;49.968;19.844;2022-10-16T15:11:24;19.20;99.90
20740;DHT22;10530;49.968;19.844;2022-10-16T15:16:27;18.90;99.90
20740;DHT22;10530;49.968;19.844;2022-10-16T15:21:32;18.50;99.90
20740;DHT22;10530;49.968;19.844;2022-10-16T15:26:35;18.40;99.90
20740;DHT22;10530;49.968;19.844;2022-10-16T15:31:38;18.30;99.90
20740;DHT22;10530;49.968;19.844;2022-10-16T15:36:41;18.10;99.90
20740;DHT22;10530;49.968;19.844;2022-10-16T15:41:45;17.80;99.90
20740;DHT22;10530;49.968;19.844;2022-10-16T15:46:54;17.50;99.90
20740;DHT22;10530;49.968;19.844;2022-10-16T15:51:57;17.00;99.90
20740;DHT22;10530;49.968;19.844;2022-10-16T15:57:00;16.70;99.90
20740;DHT22;10530;49.968;19.844;2022-10-16T16:02:03;16.50;99.90
20740;DHT22;10530;49.968;19.844;2022-10-16T16:07:06;16.10;99.90
20740;DHT22;10530;49.968;19.844;2022-10-16T16:12:12;16.00;99.90
20740;DHT22;10530;49.968;19.844;2022-10-16T16:17:15;15.60;99.90
20740;DHT22;10530;49.968;19.844;2022-10-16T16:22:18;15.40;99.90
20740;DHT22;10530;49.968;19.844;2022-10-16T16:27:21;15.30;99.90
20740;DHT22;10530;49.968;19.844;2022-10-16T16:32:24;15.10;99.90
20740;DHT22;10530;49.968;19.844;2022-10-16T16:37:27;14.90;99.90
20740;DHT22;10530;49.968;19.844;2022-10-16T16:42:30;14.80;99.90
20740;DHT22;10530;49.968;19.844;2022-10-16T16:47:33;14.60;99.90
20740;DHT22;10530;49.968;19.844;2022-10-16T16:52:37;14.40;99.90
20740;DHT22;10530;49.968;19.844;2022-10-16T16:57:40;14.30;99.90
20740;DHT22;10530;49.968;19.844;2022-10-16T17:02:43;14.30;99.90
20740;DHT22;10530;49.968;19.844;2022-10-16T17:07:47;14.10;99.90
20740;DHT22;10530;49.968;19.844;2022-10-16T17:12:50;14.20;99.90
20740;DHT22;10530;49.968;19.844;2022-10-16T17:17:53;14.10;99.90
20740;DHT22;10530;49.968;19.844;2022-10-16T17:22:56;14.40;99.90
20740;DHT22;10530;49.968;19.844;2022-10-16T17:27:59;14.50;99.90
20740;DHT22;10530;49.968;19.844;2022-10-16T17:33:02;14.50;99.90
20740;DHT22;10530;49.968;19.844;2022-10-16T17:38:05;14.50;99.90
20740;DHT22;10530;49.968;19.844;2022-10-16T17:43:08;14.40;99.90
20740;DHT22;10530;49.968;19.844;2022-10-16T17:48:11;14.30;99.90
20740;DHT22;10530;49.968;19.844;2022-10-16T17:53:14;14.10;99.90
20740;DHT22;10530;49.968;19.844;2022-10-16T17:58:17;13.80;99.90
20740;DHT22;10530;49.968;19.844;2022-10-16T18:03:20;13.80;99.90
20740;DHT22;10530;49.968;19.844;2022-10-16T18:08:23;13.60;99.90
20740;DHT22;10530;49.968;19.844;2022-10-16T18:13:30;13.60;99.90
20740;DHT22;10530;49.968;19.844;2022-10-16T18:18:33;13.50;99.90
20740;DHT22;10530;49.968;19.844;2022-10-16T18:23:36;13.50;99.90
20740;DHT22;10530;49.968;19.844;2022-10-16T18:28:39;13.30;99.90
20740;DHT22;10530;49.968;19.844;2022-10-16T18:33:43;13.30;99.90
20740;DHT22;10530;49.968;19.844;2022-10-16T18:38:50;13.30;99.90
20740;DHT22;10530;49.968;19.844;2022-10-16T18:43:53;13.30;99.90
20740;DHT22;10530;49.968;19.844;2022-10-16T18:48:58;13.10;99.90
20740;DHT22;10530;49.968;19.844;2022-10-16T18:54:06;13.10;99.90
20740;DHT22;10530;49.968;19.844;2022-10-16T18:59:10;13.00;99.90
20740;DHT22;10530;49.968;19.844;2022-10-16T19:04:15;12.80;99.90
20740;DHT22;10530;49.968;19.844;2022-10-16T19:09:20;12.70;99.90
20740;DHT22;10530;49.968;19.844;2022-10-16T19:14:24;12.70;99.90
20740;DHT22;10530;49.968;19.844;2022-10-16T19:19:27;12.90;99.90
20740;DHT22;10530;49.968;19.844;2022-10-16T19:24:30;13.00;99.90
20740;DHT22;10530;49.968;19.844;2022-10-16T19:29:33;13.00;99.90
20740;DHT22;10530;49.968;19.844;2022-10-16T19:34:36;13.00;99.90
20740;DHT22;10530;49.968;19.844;2022-10-16T19:39:38;12.80;99.90
20740;DHT22;10530;49.968;19.844;2022-10-16T19:44:41;12.70;99.90
20740;DHT22;10530;49.968;19.844;2022-10-16T19:49:44;13.30;99.90
20740;DHT22;10530;49.968;19.844;2022-10-16T19:54:48;13.40;99.90
20740;DHT22;10530;49.968;19.844;2022-10-16T19:59:52;13.20;99.90
20740;DHT22;10530;49.968;19.844;2022-10-16T20:04:55;13.30;99.90
20740;DHT22;10530;49.968;19.844;2022-10-16T20:09:58;13.10;99.90
20740;DHT22;10530;49.968;19.844;2022-10-16T20:15:01;13.10;99.90
20740;DHT22;10530;49.968;19.844;2022-10-16T20:20:05;13.00;99.90
20740;DHT22;10530;49.968;19.844;2022-10-16T20:25:08;12.80;99.90
20740;DHT22;10530;49.968;19.844;2022-10-16T20:30:11;12.70;99.90
20740;DHT22;10530;49.968;19.844;2022-10-16T20:35:14;12.70;99.90
20740;DHT22;10530;49.968;19.844;2022-10-16T20:40:17;12.50;99.90
20740;DHT22;10530;49.968;19.844;2022-10-16T20:45:20;12.40;99.90
20740;DHT22;10530;49.968;19.844;2022-10-16T20:50:27;12.20;99.90
20740;DHT22;10530;49.968;19.844;2022-10-16T20:55:34;12.20;99.90
20740;DHT22;10530;49.968;19.844;2022-10-16T21:00:38;12.10;99.90
20740;DHT22;10530;49.968;19.844;2022-10-16T21:05:41;12.10;99.90
20740;DHT22;10530;49.968;19.844;2022-10-16T21:10:44;12.10;99.90
20740;DHT22;10530;49.968;19.844;2022-10-16T21:15:47;12.30;99.90
20740;DHT22;10530;49.968;19.844;2022-10-16T21:20:50;12.20;99.90
20740;DHT22;10530;49.968;19.844;2022-10-16T21:25:53;12.30;99.90
20740;DHT22;10530;49.968;19.844;2022-10-16T21:30:56;12.30;99.90
20740;DHT22;10530;49.968;19.844;2022-10-16T21:35:59;12.40;99.90
20740;DHT22;10530;49.968;19.844;2022-10-16T21:41:12;12.40;99.90
20740;DHT22;10530;49.968;19.844;2022-10-16T21:46:16;12.30;99.90
20740;DHT22;10530;49.968;19.844;2022-10-16T21:51:19;12.10;99.90
20740;DHT22;10530;49.968;19.844;2022-10-16T21:56:22;12.00;99.90
20740;DHT22;10530;49.968;19.844;2022-10-16T22:01:26;11.90;99.90
20740;DHT22;10530;49.968;19.844;2022-10-16T22:06:29;11.80;99.90
20740;DHT22;10530;49.968;19.844;2022-10-16T22:11:35;11.60;99.90
20740;DHT22;10530;49.968;19.844;2022-10-16T22:16:39;11.60;99.90
20740;DHT22;10530;49.968;19.844;2022-10-16T22:21:43;11.60;99.90
20740;DHT22;10530;49.968;19.844;2022-10-16T22:26:49;11.60;99.90
20740;DHT22;10530;49.968;19.844;2022-10-16T22:31:52;11.60;99.90
20740;DHT22;10530;49.968;19.844;2022-10-16T22:36:55;11.60;99.90
20740;DHT22;10530;49.968;19.844;2022-10-16T22:41:58;11.50;99.90
20740;DHT22;10530;49.968;19.844;2022-10-16T22:47:02;11.50;99.90
20740;DHT22;10530;49.968;19.844;2022-10-16T22:52:05;11.40;99.90
20740;DHT22;10530;49.968;19.844;2022-10-16T22:57:07;11.40;99.90
20740;DHT22;10530;49.968;19.844;2022-10-16T23:02:10;11.30;99.90
20740;DHT22;10530;49.968;19.844;2022-10-16T23:07:13;11.40;99.90
20740;DHT22;10530;49.968;19.844;2022-10-16T23:12:15;11.30;99.90
20740;DHT22;10530;49.968;19.844;2022-10-16T23:17:20;11.30;99.90
20740;DHT22;10530;49.968;19.844;2022-10-16T23:22:23;11.20;99.90
20740;DHT22;10530;49.968;19.844;2022-10-16T23:27:26;11.20;99.90
20740;DHT22;10530;49.968;19.844;2022-10-16T23:32:30;11.10;99.90
20740;DHT22;10530;49.968;19.844;2022-10-16T23:37:38;11.10;99.90
20740;DHT22;10530;49.968;19.844;2022-10-16T23:42:40;10.90;99.90
20740;DHT22;10530;49.968;19.844;2022-10-16T23:47:43;11.00;99.90
20740;DHT22;10530;49.968;19.844;2022-10-16T23:52:46;11.00;99.90
20740;DHT22;10530;49.968;19.844;2022-10-16T23:57:48;10.80;99.90
